Soapstone Mountain, North Carolina
Current Conditions -  °F | °C
As of 10:15 PM on Friday 21 Nov 2014 (Local Time) from K5W8 Reporting Station
Clear Clear  
Wind Chill: 26°   Ceiling: Unl
Heat Index: 26°   Visibility: 10mi
Dew Point: 17°   Wind: 0mph
Humidity: 68%   Direction: NA
Pressure: 30.52"   Gusts: NA
Location:  35.8007°N, 79.5885°W
Report Text: K5W8 220315Z AUTO 00000KT 10SM CLR M03/M08 A3052 RMK AO2 T10341085
Loading
Personal Weather Stations






























Interactive Weather Map New forecast layout! Learn more

10-Day Weather Forecast

Advertisements
Track Severe Weather on mobile